Latest Weather Observations for Armidale Airport

IDN60801

Issued at 10:02 am EST Monday 1 May 2017 (issued every 30 minutes, with the page automatically refreshed every 10 minutes)

About weather observations | Map of weather stations | Latest weather observations for NSW | Other Formats
Station Details ID: 056238 Name: ARMIDALE AIRPORT AWS Lat: -30.53 Lon: 151.62 Height: 1079.0 m
Data from the previous 72 hours. | See also: Recent months at Armidale Airport
Date/Time
EST
Temp
°C
App
Temp
°C
Dew
Point
°C
Rel
Hum
%
Delta-T
°C
Wind Press
QNH
hPa
Press
MSL
hPa
Rain since
9am
mm
Dir  Spd
km/h
Gust
km/h
Spd
kts
Gust
kts
01/10:00am 15.6 13.6 14.0 90 0.9 NW 17 22 9 12 1023.2 1021.9 0.2
01/09:30am 14.7 15.0 14.4 98 0.2 NNW 6 11 3 6 1023.2 1020.1 0.2
01/09:00am 13.0 12.8 13.0 100 0.0 NNE 6 7 3 4 1023.1 1020.0 0.0
01/08:30am 11.4 10.5 11.4 100 0.0 NE 7 7 4 4 1023.6 1020.4 0.0
01/08:00am 8.5 7.0 8.5 100 0.0 ENE 6 6 3 3 1023.7 1020.6 0.0
01/07:30am 7.2 5.2 7.2 100 0.0 ENE 7 9 4 5 1023.5 1020.3 0.0
01/07:08am 6.5 4.4 6.5 100 0.0 ENE 7 7 4 4 1023.4 1020.2 0.0
01/07:00am 6.3 4.1 6.3 100 0.0 NE 7 7 4 4 1023.2 1020.1 0.0
01/06:30am 5.5 2.8 5.5 100 0.0 ENE 9 11 5 6 1022.9 1019.8 0.0
01/06:08am 5.5 2.4 5.5 100 0.0 ENE 11 11 6 6 1022.8 1019.6 0.0
01/06:02am 5.5 2.4 5.5 100 0.0 ENE 11 13 6 7 1022.8 1019.6 0.0
01/06:00am 5.5 2.4 5.5 100 0.0 ENE 11 13 6 7 1022.8 1019.6 0.0
01/05:30am 5.3 2.5 5.3 100 0.0 E 9 11 5 6 1022.6 1019.4 0.0
01/05:22am 5.4 2.3 5.4 100 0.0 E 11 13 6 7 1022.6 1019.4 0.0
01/05:00am 5.9 2.9 5.9 100 0.0 E 11 13 6 7 1022.5 1019.3 0.0
01/04:30am 5.8 2.4 5.8 100 0.0 E 13 13 7 7 1022.2 1019.1 0.0
01/04:19am 5.9 2.5 5.9 100 0.0 E 13 15 7 8 1022.0 1018.9 0.0
01/04:00am 5.6 2.5 5.6 100 0.0 E 11 13 6 7 1021.9 1018.7 0.0
01/03:59am 5.6 2.5 5.6 100 0.0 E 11 13 6 7 1021.9 1018.7 0.0
01/03:30am 5.6 2.5 5.6 100 0.0 E 11 11 6 6 1022.0 1018.9 0.0
01/03:00am 6.0 3.0 6.0 100 0.0 ENE 11 13 6 7 1022.1 1019.0 0.0
01/02:30am 6.6 3.3 6.6 100 0.0 ENE 13 15 7 8 1022.4 1019.2 0.0
01/02:00am 7.3 3.4 7.3 100 0.0 ENE 17 19 9 10 1022.4 1019.2 0.0
01/01:30am 7.2 3.7 7.2 100 0.0 E 15 17 8 9 1022.7 1019.5 0.0
01/01:00am 7.5 4.1 7.5 100 0.0 E 15 17 8 9 1022.8 1019.6 0.0
01/12:30am 7.1 4.0 7.1 100 0.0 E 13 15 7 8 1022.7 1019.5 0.0
01/12:03am 7.5 4.1 7.5 100 0.0 ENE 15 17 8 9 1022.8 1019.6 0.0
01/12:00am 7.6 3.8 7.6 100 0.0 ENE 17 17 9 9 1022.8 1019.6 0.0
 
Date/Time
EST
Temp
°C
App
Temp
°C
Dew
Point
°C
Rel
Hum
%
Delta-T
°C
Wind Press
QNH
hPa
Press
MSL
hPa
Rain since
9am
mm
Dir  Spd
km/h
Gust
km/h
Spd
kts
Gust
kts
30/11:37pm 8.0 4.3 8.0 100 0.0 ENE 17 19 9 10 1022.9 1019.8 0.0
30/11:30pm 8.1 4.4 8.1 100 0.0 ENE 17 19 9 10 1022.9 1019.8 0.0
30/11:00pm 8.8 5.3 8.8 100 0.0 ENE 17 20 9 11 1023.1 1020.0 0.0
30/10:30pm 8.9 5.8 8.9 100 0.0 ENE 15 19 8 10 1023.4 1020.2 0.0
30/10:00pm 8.7 5.2 8.7 100 0.0 ENE 17 19 9 10 1023.5 1020.3 0.0
30/09:30pm 8.8 5.3 8.7 99 0.1 ENE 17 19 9 10 1023.5 1020.3 0.0
30/09:00pm 9.2 5.7 8.9 98 0.2 ENE 17 19 9 10 1023.5 1020.3 0.0
30/08:30pm 9.3 6.2 8.7 96 0.3 E 15 17 8 9 1023.4 1020.2 0.0
30/08:00pm 9.0 6.5 8.1 94 0.5 E 11 15 6 8 1023.5 1020.3 0.0
30/07:30pm 9.6 6.8 8.4 92 0.6 ENE 13 15 7 8 1023.5 1020.3 0.0
30/07:00pm 9.9 7.4 8.0 88 1.0 E 11 13 6 7 1023.2 1020.1 0.0
30/06:30pm 11.3 8.5 8.7 84 1.4 E 13 15 7 8 1023.1 1020.0 0.0
30/06:00pm 11.8 9.4 8.6 81 1.7 ESE 11 13 6 7 1022.7 1019.5 0.0
30/05:30pm 12.5 10.1 8.6 77 2.1 ESE 11 13 6 7 1022.5 1019.3 0.0
30/05:00pm 14.0 11.3 8.8 71 2.8 ESE 13 17 7 9 1022.0 1018.9 0.0
30/04:30pm 15.1 12.4 8.8 66 3.4 SE 13 17 7 9 1021.8 1018.6 0.0
30/04:00pm 15.8 12.7 9.0 64 3.7 SE 15 20 8 11 1021.6 1018.4 0.0
30/03:30pm 16.8 14.5 9.0 60 4.3 ESE 11 15 6 8 1021.6 1018.4 0.0
30/03:00pm 16.6 13.9 8.8 60 4.2 SE 13 19 7 10 1021.6 1018.4 0.0
30/02:30pm 16.8 14.9 9.0 60 4.3 ESE 9 15 5 8 1021.6 1018.4 0.0
30/02:00pm 17.1 14.6 8.0 55 4.9 E 11 17 6 9 1021.7 1018.5 0.0
30/01:30pm 16.2 14.2 8.7 61 4.1 ESE 9 15 5 8 1021.8 1018.6 0.0
30/01:00pm 16.1 13.4 9.1 63 3.8 ENE 13 20 7 11 1022.0 1018.9 0.0
30/12:30pm 15.5 12.5 9.2 66 3.4 E 15 24 8 13 1022.4 1019.2 0.0
30/12:00pm 14.7 11.4 9.5 71 2.8 E 17 26 9 14 1022.8 1019.6 0.0
30/11:30am 14.6 10.7 9.4 71 2.8 E 20 26 11 14 1023.2 1020.1 0.0
30/11:00am 14.2 10.5 9.4 73 2.6 ESE 19 26 10 14 1023.7 1020.6 0.0
30/10:30am 13.6 9.9 10.0 79 2.0 E 20 26 11 14 1023.8 1020.7 0.0
30/10:00am 12.4 9.3 11.5 94 0.5 ESE 19 24 10 13 1024.0 1020.9 0.0
30/09:33am 11.5 8.7 11.2 98 0.2 ESE 17 22 9 12 1024.1 1021.0 0.0
30/09:30am 11.3 8.4 11.1 99 0.1 ESE 17 22 9 12 1024.0 1020.9 0.0
30/09:00am 10.0 7.2 10.0 100 0.0 E 15 20 8 11 1024.1 1021.0 0.2
30/08:44am 9.1 5.7 9.1 100 0.0 E 17 20 9 11 1024.2 1021.1 0.2
30/08:30am 8.5 5.3 8.5 100 0.0 E 15 20 8 11 1024.2 1021.1 0.2
30/08:00am 8.2 4.9 8.2 100 0.0 E 15 20 8 11 1023.9 1020.8 0.2
30/07:30am 7.2 3.7 7.2 100 0.0 ENE 15 17 8 9 1023.7 1020.6 0.2
30/07:00am 6.5 3.2 6.5 100 0.0 E 13 17 7 9 1023.5 1020.3 0.2
30/06:40am 6.1 2.7 6.1 100 0.0 E 13 15 7 8 1023.2 1020.1 0.2
30/06:32am 5.6 2.1 5.6 100 0.0 E 13 15 7 8 1023.2 1020.1 0.2
30/06:30am 5.7 2.3 5.7 100 0.0 E 13 15 7 8 1023.2 1020.1 0.2
30/06:21am 5.8 2.0 5.8 100 0.0 E 15 15 8 8 1023.1 1020.0 0.2
30/06:00am 6.5 2.8 6.4 99 0.0 E 15 19 8 10 1022.9 1019.8 0.2
30/05:30am 7.1 3.6 7.0 99 0.0 E 15 17 8 9 1022.6 1019.4 0.2
30/05:26am 7.2 3.7 7.1 99 0.0 E 15 17 8 9 1022.6 1019.4 0.2
30/05:10am 6.8 3.6 6.7 99 0.0 E 13 15 7 8 1022.5 1019.3 0.2
30/05:00am 6.6 3.7 6.5 99 0.0 E 11 13 6 7 1022.4 1019.2 0.2
30/04:30am 6.4 3.0 6.1 98 0.1 E 13 17 7 9 1022.1 1019.0 0.2
30/04:00am 6.0 2.2 5.9 99 0.0 E 15 17 8 9 1022.1 1019.0 0.2
30/03:56am 5.6 1.7 5.5 99 0.0 E 15 17 8 9 1022.1 1019.0 0.2
30/03:30am 5.0 0.6 4.7 98 0.1 E 17 19 9 10 1021.9 1018.7 0.2
30/03:00am 3.7 -0.2 3.4 98 0.1 ESE 13 15 7 8 1021.6 1018.4 0.2
30/02:30am 4.3 1.3 4.0 98 0.1 ENE 9 9 5 5 1021.7 1018.5 0.2
30/02:00am 4.3 0.8 3.6 95 0.3 ENE 11 15 6 8 1021.7 1018.5 0.2
30/01:30am 5.1 2.1 4.2 94 0.4 ENE 9 11 5 6 1022.0 1018.9 0.2
30/01:00am 4.7 1.6 3.5 92 0.5 NE 9 11 5 6 1022.0 1018.9 0.2
30/12:30am 6.6 4.3 5.6 93 0.5 NE 7 9 4 5 1021.9 1018.7 0.2
30/12:00am 6.5 4.1 5.3 92 0.6 NE 7 7 4 4 1022.0 1018.9 0.2
 
Date/Time
EST
Temp
°C
App
Temp
°C
Dew
Point
°C
Rel
Hum
%
Delta-T
°C
Wind Press
QNH
hPa
Press
MSL
hPa
Rain since
9am
mm
Dir  Spd
km/h
Gust
km/h
Spd
kts
Gust
kts
29/11:30pm 6.4 3.9 5.0 91 0.7 NE 7 7 4 4 1022.0 1018.9 0.2
29/11:00pm 6.1 3.2 4.6 90 0.7 ENE 9 11 5 6 1022.1 1019.0 0.2
29/10:30pm 7.2 5.0 5.5 89 0.8 NNE 6 6 3 3 1022.4 1019.2 0.2
29/10:00pm 7.6 6.6 5.4 86 1.0 CALM 0 6 0 3 1022.4 1019.2 0.2
29/09:30pm 6.8 4.4 4.1 83 1.2 NW 6 7 3 4 1022.4 1019.2 0.2
29/09:23pm 7.4 5.1 4.7 83 1.3 WNW 6 7 3 4 1022.4 1019.2 0.2
29/09:00pm 7.5 3.8 4.6 82 1.4 SW 13 15 7 8 1022.2 1019.1 0.2
29/08:30pm 8.3 5.1 5.2 81 1.5 WSW 11 15 6 8 1022.4 1019.2 0.2
29/08:10pm 8.5 5.3 5.3 80 1.5 WSW 11 13 6 7 1022.4 1019.2 0.2
29/08:09pm 8.6 5.5 5.4 80 1.5 W 11 13 6 7 1022.4 1019.2 0.2
29/08:00pm 8.8 6.1 5.5 80 1.6 W 9 11 5 6 1022.4 1019.2 0.2
29/07:51pm 8.4 5.6 5.2 80 1.5 W 9 11 5 6 1022.4 1019.2 0.2
29/07:36pm 8.9 5.8 5.5 79 1.6 W 11 11 6 6 1022.2 1019.1 0.2
29/07:30pm 9.3 6.7 5.9 79 1.7 W 9 11 5 6 1022.2 1019.1 0.2
29/07:00pm 9.1 5.9 5.1 76 1.9 W 11 13 6 7 1022.2 1019.1 0.2
29/06:53pm 9.5 6.4 5.5 76 1.9 WSW 11 13 6 7 1022.2 1019.1 0.2
29/06:30pm 10.2 7.1 5.4 72 2.3 W 11 13 6 7 1022.0 1018.9 0.2
29/06:00pm 11.0 7.5 5.3 68 2.8 W 13 15 7 8 1021.8 1018.6 0.2
29/05:30pm 12.1 8.6 5.5 64 3.3 WNW 13 15 7 8 1021.4 1018.2 0.2
29/05:00pm 14.9 11.6 6.2 56 4.4 WNW 13 19 7 10 1021.0 1017.8 0.2
29/04:30pm 16.6 13.0 6.7 52 5.2 WNW 15 19 8 10 1020.7 1017.5 0.2
29/04:00pm 17.4 13.8 5.0 44 6.3 W 13 20 7 11 1020.4 1017.2 0.2
29/03:30pm 17.7 14.2 5.6 45 6.2 W 13 19 7 10 1020.4 1017.2 0.2
29/03:00pm 18.1 14.4 4.3 40 6.9 WNW 13 20 7 11 1020.4 1017.2 0.2
29/02:30pm 17.6 13.5 4.6 42 6.6 W 15 20 8 11 1020.6 1017.4 0.2
29/02:21pm 17.8 13.7 6.0 46 6.1 W 17 22 9 12 1020.6 1017.4 0.2
29/02:00pm 17.7 13.9 5.9 46 6.1 WNW 15 20 8 11 1020.7 1017.5 0.2
29/01:42pm 17.8 14.3 5.4 44 6.4 WNW 13 20 7 11 1020.7 1017.5 0.2
29/01:30pm 17.6 15.2 7.1 50 5.6 SW 9 15 5 8 1020.8 1017.6 0.2
29/01:00pm 17.6 15.4 7.9 53 5.2 W 9 20 5 11 1021.0 1017.8 0.2
29/12:30pm 17.0 14.6 6.8 51 5.3 SW 9 17 5 9 1021.6 1018.4 0.2
29/12:00pm 16.3 13.6 5.6 49 5.4 SW 9 15 5 8 1021.9 1018.7 0.2
29/11:30am 15.3 12.8 6.6 56 4.5 SSE 9 13 5 7 1022.4 1019.2 0.2
29/11:00am 15.0 13.3 8.5 65 3.5 SSE 7 11 4 6 1022.8 1019.6 0.2
29/10:30am 14.5 13.0 9.3 71 2.8 ENE 7 11 4 6 1022.7 1019.5 0.0
29/10:00am 13.6 11.7 8.9 73 2.5 ENE 9 13 5 7 1022.8 1019.6 0.0
29/09:30am 12.0 9.8 9.4 84 1.4 NE 11 15 6 8 1022.7 1019.5 0.0
29/09:00am 11.4 10.3 10.6 95 0.4 ENE 7 9 4 5 1022.7 1019.5 0.0
29/08:30am 10.2 8.9 10.1 99 0.1 NE 7 9 4 5 1022.6 1019.4 0.0
29/08:00am 8.7 8.4 8.7 100 0.0 CALM 0 0 0 0 1022.4 1019.2 0.0
29/07:30am 7.5 6.9 7.5 100 0.0 CALM 0 0 0 0 1022.0 1018.9 0.0
29/07:21am 7.0 6.3 7.0 100 0.0 CALM 0 0 0 0 1022.0 1018.9 0.0
29/07:00am 4.2 2.9 4.2 100 0.0 CALM 0 0 0 0 1021.9 1018.7 0.0
29/06:44am 3.7 2.3 3.7 100 0.0 CALM 0 0 0 0 1021.7 1018.5 0.0
29/06:30am 3.8 2.4 3.8 100 0.0 CALM 0 0 0 0 1021.5 1018.3 0.0
29/06:00am 4.3 3.0 4.3 100 0.0 CALM 0 0 0 0 1021.4 1018.2 0.0
29/05:36am 4.9 3.8 4.9 100 0.0 CALM 0 0 0 0 1021.4 1018.2 0.0
29/05:30am 4.9 3.8 4.9 100 0.0 CALM 0 0 0 0 1021.4 1018.2 0.0
29/05:00am 4.5 3.3 4.5 100 0.0 CALM 0 0 0 0 1021.1 1017.9 0.0
29/04:30am 4.2 2.9 4.2 100 0.0 CALM 0 0 0 0 1020.8 1017.6 0.0
29/04:06am 4.3 3.0 4.3 100 0.0 CALM 0 0 0 0 1020.9 1017.7 0.0
29/04:00am 4.7 3.5 4.7 100 0.0 CALM 0 0 0 0 1020.8 1017.6 0.0
29/03:44am 4.0 2.7 4.0 100 0.0 CALM 0 0 0 0 1020.8 1017.6 0.0
29/03:30am 4.9 3.8 4.9 100 0.0 CALM 0 0 0 0 1020.7 1017.5 0.0
29/03:09am 3.8 2.4 3.8 100 0.0 CALM 0 0 0 0 1020.7 1017.5 0.0
29/03:00am 3.7 1.9 3.7 100 0.0 ENE 2 6 1 3 1020.7 1017.5 0.0
29/02:30am 3.4 0.6 3.4 100 0.0 ENE 7 9 4 5 1020.7 1017.5 0.0
29/02:25am 3.0 0.2 3.0 100 0.0 ENE 7 9 4 5 1020.8 1017.6 0.0
29/02:00am 3.7 1.9 3.7 100 0.0 NE 2 6 1 3 1021.1 1017.9 0.0
29/01:38am 5.0 3.5 5.0 100 0.0 ENE 2 7 1 4 1021.3 1018.1 0.0
29/01:30am 4.9 3.8 4.9 100 0.0 CALM 0 0 0 0 1021.4 1018.2 0.0
29/01:00am 4.3 1.9 4.3 100 0.0 E 6 6 3 3 1021.5 1018.3 0.0
29/12:30am 5.6 3.8 5.5 99 0.0 E 4 6 2 3 1021.7 1018.5 0.0
29/12:08am 5.7 3.4 5.6 99 0.0 NE 7 7 4 4 1021.7 1018.5 0.0
29/12:05am 6.2 4.0 6.2 100 0.0 NE 7 9 4 5 1021.7 1018.5 0.0
29/12:00am 5.7 3.4 5.6 99 0.0 NE 7 9 4 5 1021.7 1018.5 0.0
 
Date/Time
EST
Temp
°C
App
Temp
°C
Dew
Point
°C
Rel
Hum
%
Delta-T
°C
Wind Press
QNH
hPa
Press
MSL
hPa
Rain since
9am
mm
Dir  Spd
km/h
Gust
km/h
Spd
kts
Gust
kts
28/11:30pm 4.1 0.7 3.8 98 0.1 NE 11 11 6 6 1021.8 1018.6 0.0
28/11:09pm 4.9 2.4 4.5 97 0.2 NE 7 9 4 5 1021.7 1018.5 0.0
28/11:00pm 6.5 4.3 6.1 97 0.2 ESE 7 7 4 4 1021.8 1018.6 0.0
28/10:30pm 6.2 4.1 5.6 96 0.3 ESE 6 7 3 4 1022.0 1018.9 0.0
28/10:00pm 7.0 5.0 6.4 96 0.3 ESE 6 7 3 4 1022.1 1019.0 0.0
28/09:30pm 6.0 3.2 5.3 95 0.3 ENE 9 9 5 5 1022.2 1019.1 0.0
28/09:00pm 6.2 3.4 5.2 93 0.5 ENE 9 9 5 5 1022.2 1019.1 0.0
28/08:30pm 7.1 4.8 5.9 92 0.6 E 7 7 4 4 1022.4 1019.2 0.0
28/08:00pm 7.0 4.5 5.0 87 0.9 E 7 11 4 6 1022.1 1019.0 0.0
28/07:30pm 8.4 5.7 5.7 83 1.3 ESE 9 11 5 6 1022.1 1019.0 0.0
28/07:00pm 9.6 7.1 6.7 82 1.4 SE 9 11 5 6 1022.0 1018.9 0.0
28/06:30pm 9.9 7.4 6.6 80 1.6 SSE 9 11 5 6 1021.8 1018.6 0.0
28/06:00pm 11.2 9.0 7.7 79 1.8 SSE 9 13 5 7 1021.5 1018.3 0.0
28/05:30pm 11.9 9.4 8.0 77 2.0 SSE 11 15 6 8 1021.0 1017.8 0.0
28/05:00pm 12.3 9.0 8.2 76 2.1 SE 15 20 8 11 1020.9 1017.7 0.0
28/04:30pm 12.8 10.3 8.3 74 2.4 SE 11 15 6 8 1020.7 1017.5 0.0
28/04:00pm 13.1 9.8 8.2 72 2.6 SE 15 20 8 11 1020.6 1017.4 0.0
28/03:30pm 13.3 10.1 8.6 73 2.5 SSE 15 22 8 12 1020.6 1017.4 0.0
28/03:00pm 13.2 9.6 8.5 73 2.5 SSE 17 26 9 14 1020.5 1017.3 0.0
28/02:30pm 13.3 8.3 8.2 71 2.7 SE 24 32 13 17 1020.1 1016.9 0.0
28/02:00pm 14.7 10.9 9.7 72 2.7 SSE 20 28 11 15 1020.0 1016.8 0.0
28/01:30pm 14.1 10.2 9.3 73 2.6 ESE 20 37 11 20 1020.0 1016.8 0.0
28/01:00pm 12.8 8.2 8.1 73 2.5 SE 22 28 12 15 1020.4 1017.2 0.0
28/12:30pm 12.9 9.3 8.2 73 2.5 SE 17 26 9 14 1020.3 1017.0 0.0
28/12:00pm 12.6 8.0 8.3 75 2.3 SE 22 30 12 16 1020.7 1017.5 0.0
28/11:30am 12.8 8.7 8.7 76 2.2 SE 20 30 11 16 1021.0 1017.8 0.0
28/11:00am 12.4 8.0 8.9 79 1.9 SE 22 28 12 15 1021.1 1017.9 0.0
28/10:30am 12.1 7.6 8.6 79 1.8 SE 22 30 12 16 1021.1 1017.9 0.0

Other Formats:

Comma delimited format used in spreadsheet applications
http://www.bom.gov.au/fwo/IDN60801/IDN60801.95773.axf

JavaScript Object Notation format (JSON) in row-major order
http://www.bom.gov.au/fwo/IDN60801/IDN60801.95773.json